sensor_id;sensor_type;location;lat;lon;timestamp;pressure;altitude;pressure_sealevel;temperature;humidity
47913;BME280;33676;51.006;17.180;2023-04-27T00:01:13;100441.23;;;4.10;76.01
47913;BME280;33676;51.006;17.180;2023-04-27T00:03:42;100440.58;;;4.05;76.20
47913;BME280;33676;51.006;17.180;2023-04-27T00:06:13;100440.62;;;4.01;76.32
47913;BME280;33676;51.006;17.180;2023-04-27T00:08:42;100438.03;;;3.97;76.37
47913;BME280;33676;51.006;17.180;2023-04-27T00:11:10;100434.80;;;3.92;76.49
47913;BME280;33676;51.006;17.180;2023-04-27T00:13:39;100433.45;;;3.88;76.43
47913;BME280;33676;51.006;17.180;2023-04-27T00:16:07;100432.45;;;3.84;76.61
47913;BME280;33676;51.006;17.180;2023-04-27T00:18:36;100429.39;;;3.79;76.71
47913;BME280;33676;51.006;17.180;2023-04-27T00:21:05;100428.02;;;3.75;76.64
47913;BME280;33676;51.006;17.180;2023-04-27T00:23:34;100429.06;;;3.71;76.84
47913;BME280;33676;51.006;17.180;2023-04-27T00:26:03;100422.00;;;3.67;76.87
47913;BME280;33676;51.006;17.180;2023-04-27T00:28:31;100422.58;;;3.62;76.88
47913;BME280;33676;51.006;17.180;2023-04-27T00:31:00;100425.02;;;3.58;76.95
47913;BME280;33676;51.006;17.180;2023-04-27T00:33:30;100422.91;;;3.55;77.09
47913;BME280;33676;51.006;17.180;2023-04-27T00:36:00;100426.01;;;3.52;77.35
47913;BME280;33676;51.006;17.180;2023-04-27T00:38:29;100430.80;;;3.50;77.20
47913;BME280;33676;51.006;17.180;2023-04-27T00:41:06;100432.15;;;3.46;77.32
47913;BME280;33676;51.006;17.180;2023-04-27T00:43:45;100435.92;;;3.43;77.34
47913;BME280;33676;51.006;17.180;2023-04-27T00:46:15;100435.54;;;3.40;77.33
47913;BME280;33676;51.006;17.180;2023-04-27T00:48:45;100438.63;;;3.37;77.32
47913;BME280;33676;51.006;17.180;2023-04-27T00:51:14;100440.30;;;3.34;77.51
47913;BME280;33676;51.006;17.180;2023-04-27T00:53:42;100438.36;;;3.31;77.41
47913;BME280;33676;51.006;17.180;2023-04-27T00:56:11;100440.55;;;3.28;77.62
47913;BME280;33676;51.006;17.180;2023-04-27T00:58:40;100438.57;;;3.26;77.49
47913;BME280;33676;51.006;17.180;2023-04-27T01:01:08;100437.83;;;3.24;77.68
47913;BME280;33676;51.006;17.180;2023-04-27T01:03:37;100439.45;;;3.22;77.76
47913;BME280;33676;51.006;17.180;2023-04-27T01:06:06;100439.58;;;3.19;77.78
47913;BME280;33676;51.006;17.180;2023-04-27T01:08:34;100438.23;;;3.19;77.82
47913;BME280;33676;51.006;17.180;2023-04-27T01:11:02;100436.86;;;3.19;77.90
47913;BME280;33676;51.006;17.180;2023-04-27T01:13:31;100435.91;;;3.17;77.92
47913;BME280;33676;51.006;17.180;2023-04-27T01:15:59;100436.31;;;3.16;77.93
47913;BME280;33676;51.006;17.180;2023-04-27T01:18:27;100436.91;;;3.14;78.08
47913;BME280;33676;51.006;17.180;2023-04-27T01:20:56;100438.55;;;3.12;78.06
47913;BME280;33676;51.006;17.180;2023-04-27T01:23:25;100439.69;;;3.10;77.91
47913;BME280;33676;51.006;17.180;2023-04-27T01:25:53;100439.27;;;3.08;78.09
47913;BME280;33676;51.006;17.180;2023-04-27T01:28:21;100440.57;;;3.06;78.01
47913;BME280;33676;51.006;17.180;2023-04-27T01:30:50;100439.77;;;3.05;78.19
47913;BME280;33676;51.006;17.180;2023-04-27T01:33:18;100442.12;;;3.02;78.24
47913;BME280;33676;51.006;17.180;2023-04-27T01:35:47;100441.38;;;2.99;78.08
47913;BME280;33676;51.006;17.180;2023-04-27T01:38:16;100444.58;;;2.97;78.23
47913;BME280;33676;51.006;17.180;2023-04-27T01:40:44;100443.98;;;2.95;78.22
47913;BME280;33676;51.006;17.180;2023-04-27T01:43:12;100447.84;;;2.93;78.35
47913;BME280;33676;51.006;17.180;2023-04-27T01:45:41;100446.90;;;2.91;78.27
47913;BME280;33676;51.006;17.180;2023-04-27T01:48:09;100448.19;;;2.89;78.31
47913;BME280;33676;51.006;17.180;2023-04-27T01:50:38;100448.81;;;2.87;78.42
47913;BME280;33676;51.006;17.180;2023-04-27T01:53:07;100447.86;;;2.85;78.17
47913;BME280;33676;51.006;17.180;2023-04-27T01:55:36;100451.23;;;2.83;78.62
47913;BME280;33676;51.006;17.180;2023-04-27T01:58:04;100451.95;;;2.82;78.43
47913;BME280;33676;51.006;17.180;2023-04-27T02:00:32;100452.70;;;2.81;78.61
47913;BME280;33676;51.006;17.180;2023-04-27T02:03:01;100456.39;;;2.80;78.55
47913;BME280;33676;51.006;17.180;2023-04-27T02:05:30;100457.02;;;2.77;78.69
47913;BME280;33676;51.006;17.180;2023-04-27T02:07:58;100459.52;;;2.75;78.64
47913;BME280;33676;51.006;17.180;2023-04-27T02:10:27;100460.86;;;2.72;78.49
47913;BME280;33676;51.006;17.180;2023-04-27T02:12:55;100459.79;;;2.69;78.41
47913;BME280;33676;51.006;17.180;2023-04-27T02:15:24;100457.19;;;2.64;78.46
47913;BME280;33676;51.006;17.180;2023-04-27T02:17:52;100456.27;;;2.62;78.52
47913;BME280;33676;51.006;17.180;2023-04-27T02:20:21;100458.69;;;2.58;78.71
47913;BME280;33676;51.006;17.180;2023-04-27T02:22:50;100464.67;;;2.56;78.70
47913;BME280;33676;51.006;17.180;2023-04-27T02:25:20;100460.34;;;2.52;78.74
47913;BME280;33676;51.006;17.180;2023-04-27T02:27:49;100465.48;;;2.49;78.75
47913;BME280;33676;51.006;17.180;2023-04-27T02:30:18;100460.67;;;2.44;78.52
47913;BME280;33676;51.006;17.180;2023-04-27T02:32:46;100464.67;;;2.39;78.55
47913;BME280;33676;51.006;17.180;2023-04-27T02:35:15;100466.09;;;2.34;78.52
47913;BME280;33676;51.006;17.180;2023-04-27T02:37:43;100470.30;;;2.28;78.53
47913;BME280;33676;51.006;17.180;2023-04-27T02:40:12;100468.96;;;2.23;78.49
47913;BME280;33676;51.006;17.180;2023-04-27T02:42:40;100471.91;;;2.18;78.66
47913;BME280;33676;51.006;17.180;2023-04-27T02:45:09;100472.26;;;2.14;78.70
47913;BME280;33676;51.006;17.180;2023-04-27T02:47:37;100468.44;;;2.10;78.85
47913;BME280;33676;51.006;17.180;2023-04-27T02:50:06;100468.80;;;2.06;78.82
47913;BME280;33676;51.006;17.180;2023-04-27T02:52:35;100469.29;;;2.02;78.84
47913;BME280;33676;51.006;17.180;2023-04-27T02:55:04;100464.50;;;1.97;78.79
47913;BME280;33676;51.006;17.180;2023-04-27T02:57:32;100466.89;;;1.93;78.89
47913;BME280;33676;51.006;17.180;2023-04-27T03:00:02;100469.59;;;1.90;78.94
47913;BME280;33676;51.006;17.180;2023-04-27T03:02:31;100469.89;;;1.87;79.06
47913;BME280;33676;51.006;17.180;2023-04-27T03:05:00;100472.08;;;1.84;79.07
47913;BME280;33676;51.006;17.180;2023-04-27T03:07:28;100471.67;;;1.81;79.39
47913;BME280;33676;51.006;17.180;2023-04-27T03:09:58;100477.08;;;1.80;79.36
47913;BME280;33676;51.006;17.180;2023-04-27T03:12:27;100475.59;;;1.78;79.58
47913;BME280;33676;51.006;17.180;2023-04-27T03:14:55;100474.06;;;1.77;79.77
47913;BME280;33676;51.006;17.180;2023-04-27T03:17:24;100475.13;;;1.76;79.99
47913;BME280;33676;51.006;17.180;2023-04-27T03:19:53;100477.01;;;1.77;80.08
47913;BME280;33676;51.006;17.180;2023-04-27T03:22:21;100473.86;;;1.78;80.27
47913;BME280;33676;51.006;17.180;2023-04-27T03:24:49;100480.69;;;1.80;80.51
47913;BME280;33676;51.006;17.180;2023-04-27T03:27:18;100478.08;;;1.81;80.46
47913;BME280;33676;51.006;17.180;2023-04-27T03:29:50;100479.05;;;1.82;80.78
47913;BME280;33676;51.006;17.180;2023-04-27T03:32:19;100475.23;;;1.83;80.54
47913;BME280;33676;51.006;17.180;2023-04-27T03:34:47;100480.56;;;1.83;80.64
47913;BME280;33676;51.006;17.180;2023-04-27T03:37:16;100478.73;;;1.81;80.19
47913;BME280;33676;51.006;17.180;2023-04-27T03:39:44;100482.83;;;1.78;79.98
47913;BME280;33676;51.006;17.180;2023-04-27T03:42:12;100484.84;;;1.75;80.00
47913;BME280;33676;51.006;17.180;2023-04-27T03:44:41;100490.32;;;1.71;79.87
47913;BME280;33676;51.006;17.180;2023-04-27T03:47:09;100490.41;;;1.64;79.68
47913;BME280;33676;51.006;17.180;2023-04-27T03:49:37;100494.92;;;1.58;79.69
47913;BME280;33676;51.006;17.180;2023-04-27T03:52:06;100494.81;;;1.53;79.78
47913;BME280;33676;51.006;17.180;2023-04-27T03:54:34;100498.38;;;1.50;79.94
47913;BME280;33676;51.006;17.180;2023-04-27T03:57:03;100505.53;;;1.47;80.03
47913;BME280;33676;51.006;17.180;2023-04-27T03:59:32;100505.59;;;1.46;79.90
47913;BME280;33676;51.006;17.180;2023-04-27T04:02:00;100511.16;;;1.44;80.11
47913;BME280;33676;51.006;17.180;2023-04-27T04:04:31;100508.95;;;1.44;80.14
47913;BME280;33676;51.006;17.180;2023-04-27T04:06:59;100514.25;;;1.45;80.22
47913;BME280;33676;51.006;17.180;2023-04-27T04:09:28;100511.14;;;1.45;80.27
47913;BME280;33676;51.006;17.180;2023-04-27T04:11:56;100517.81;;;1.46;80.40
47913;BME280;33676;51.006;17.180;2023-04-27T04:14:26;100520.15;;;1.48;80.61
47913;BME280;33676;51.006;17.180;2023-04-27T04:16:55;100522.03;;;1.49;80.62
47913;BME280;33676;51.006;17.180;2023-04-27T04:19:23;100525.30;;;1.49;80.85
47913;BME280;33676;51.006;17.180;2023-04-27T04:21:51;100527.73;;;1.48;80.98
47913;BME280;33676;51.006;17.180;2023-04-27T04:24:21;100531.96;;;1.50;80.96
47913;BME280;33676;51.006;17.180;2023-04-27T04:26:50;100534.71;;;1.55;81.15
47913;BME280;33676;51.006;17.180;2023-04-27T04:29:18;100533.11;;;1.60;81.37
47913;BME280;33676;51.006;17.180;2023-04-27T04:31:47;100534.31;;;1.65;81.47
47913;BME280;33676;51.006;17.180;2023-04-27T04:34:15;100535.63;;;1.72;81.49
47913;BME280;33676;51.006;17.180;2023-04-27T04:36:43;100542.39;;;1.79;81.77
47913;BME280;33676;51.006;17.180;2023-04-27T04:39:12;100543.27;;;1.88;81.86
47913;BME280;33676;51.006;17.180;2023-04-27T04:41:41;100544.90;;;2.00;82.27
47913;BME280;33676;51.006;17.180;2023-04-27T04:44:10;100545.27;;;2.12;82.13
47913;BME280;33676;51.006;17.180;2023-04-27T04:46:38;100542.89;;;2.24;82.25
47913;BME280;33676;51.006;17.180;2023-04-27T04:49:07;100545.23;;;2.39;82.60
47913;BME280;33676;51.006;17.180;2023-04-27T04:51:35;100548.34;;;2.56;82.65
47913;BME280;33676;51.006;17.180;2023-04-27T04:54:04;100549.87;;;2.73;82.96
47913;BME280;33676;51.006;17.180;2023-04-27T04:56:32;100551.77;;;2.90;82.93
47913;BME280;33676;51.006;17.180;2023-04-27T04:59:01;100552.91;;;3.08;83.04
47913;BME280;33676;51.006;17.180;2023-04-27T05:01:29;100556.08;;;3.25;83.13
47913;BME280;33676;51.006;17.180;2023-04-27T05:03:58;100552.70;;;3.44;83.28
47913;BME280;33676;51.006;17.180;2023-04-27T05:06:27;100556.56;;;3.62;83.27
47913;BME280;33676;51.006;17.180;2023-04-27T05:08:56;100558.11;;;3.81;83.41
47913;BME280;33676;51.006;17.180;2023-04-27T05:11:25;100564.44;;;3.97;83.41
47913;BME280;33676;51.006;17.180;2023-04-27T05:13:53;100564.09;;;4.12;83.25
47913;BME280;33676;51.006;17.180;2023-04-27T05:16:22;100566.16;;;4.27;83.10
47913;BME280;33676;51.006;17.180;2023-04-27T05:18:50;100563.20;;;4.42;82.99
47913;BME280;33676;51.006;17.180;2023-04-27T05:21:19;100565.06;;;4.53;82.88
47913;BME280;33676;51.006;17.180;2023-04-27T05:23:49;100567.38;;;4.66;82.80
47913;BME280;33676;51.006;17.180;2023-04-27T05:26:18;100564.20;;;4.78;82.63
47913;BME280;33676;51.006;17.180;2023-04-27T05:28:47;100566.25;;;4.89;82.68
47913;BME280;33676;51.006;17.180;2023-04-27T05:31:16;100568.08;;;5.01;82.61
47913;BME280;33676;51.006;17.180;2023-04-27T05:33:45;100572.73;;;5.11;82.33
47913;BME280;33676;51.006;17.180;2023-04-27T05:36:13;100574.02;;;5.19;82.14
47913;BME280;33676;51.006;17.180;2023-04-27T05:38:41;100575.94;;;5.29;82.16
47913;BME280;33676;51.006;17.180;2023-04-27T05:41:10;100572.16;;;5.39;82.09
47913;BME280;33676;51.006;17.180;2023-04-27T05:43:38;100575.52;;;5.48;81.80
47913;BME280;33676;51.006;17.180;2023-04-27T05:46:07;100576.56;;;5.58;81.89
47913;BME280;33676;51.006;17.180;2023-04-27T05:48:36;100582.98;;;5.67;81.86
47913;BME280;33676;51.006;17.180;2023-04-27T05:51:04;100584.41;;;5.76;81.56
47913;BME280;33676;51.006;17.180;2023-04-27T05:53:33;100586.70;;;5.82;81.13
47913;BME280;33676;51.006;17.180;2023-04-27T05:56:02;100587.24;;;5.88;80.67
47913;BME280;33676;51.006;17.180;2023-04-27T05:58:33;100589.25;;;5.96;80.62
47913;BME280;33676;51.006;17.180;2023-04-27T06:01:02;100590.55;;;6.05;80.30
47913;BME280;33676;51.006;17.180;2023-04-27T06:03:31;100585.65;;;6.15;80.19
47913;BME280;33676;51.006;17.180;2023-04-27T06:06:00;100591.87;;;6.27;79.87
47913;BME280;33676;51.006;17.180;2023-04-27T06:08:29;100593.13;;;6.42;79.90
47913;BME280;33676;51.006;17.180;2023-04-27T06:10:58;100591.73;;;6.58;79.76
47913;BME280;33676;51.006;17.180;2023-04-27T06:13:29;100594.41;;;6.72;79.35
47913;BME280;33676;51.006;17.180;2023-04-27T06:15:59;100592.13;;;6.84;79.13
47913;BME280;33676;51.006;17.180;2023-04-27T06:18:28;100596.33;;;6.96;79.04
47913;BME280;33676;51.006;17.180;2023-04-27T06:21:00;100593.12;;;7.06;78.92
47913;BME280;33676;51.006;17.180;2023-04-27T06:23:29;100595.89;;;7.18;78.93
47913;BME280;33676;51.006;17.180;2023-04-27T06:25:59;100598.32;;;7.30;78.61
47913;BME280;33676;51.006;17.180;2023-04-27T06:28:29;100599.27;;;7.40;78.30
47913;BME280;33676;51.006;17.180;2023-04-27T06:30:58;100600.98;;;7.52;78.27
47913;BME280;33676;51.006;17.180;2023-04-27T06:33:26;100603.16;;;7.65;78.15
47913;BME280;33676;51.006;17.180;2023-04-27T06:35:54;100605.51;;;7.78;77.47
47913;BME280;33676;51.006;17.180;2023-04-27T06:38:23;100601.84;;;7.89;76.73
47913;BME280;33676;51.006;17.180;2023-04-27T06:40:51;100602.68;;;8.01;76.45
47913;BME280;33676;51.006;17.180;2023-04-27T06:43:20;100598.16;;;8.12;76.27
47913;BME280;33676;51.006;17.180;2023-04-27T06:45:49;100597.95;;;8.23;75.82
47913;BME280;33676;51.006;17.180;2023-04-27T06:48:17;100596.09;;;8.31;75.27
47913;BME280;33676;51.006;17.180;2023-04-27T06:50:47;100599.63;;;8.38;74.76
47913;BME280;33676;51.006;17.180;2023-04-27T06:53:15;100594.45;;;8.46;74.41
47913;BME280;33676;51.006;17.180;2023-04-27T06:55:45;100591.16;;;8.53;73.97
47913;BME280;33676;51.006;17.180;2023-04-27T06:58:16;100585.84;;;8.60;73.63
47913;BME280;33676;51.006;17.180;2023-04-27T07:00:45;100583.46;;;8.65;73.59
47913;BME280;33676;51.006;17.180;2023-04-27T07:03:13;100585.38;;;8.70;73.58
47913;BME280;33676;51.006;17.180;2023-04-27T07:05:42;100583.13;;;8.78;73.62
47913;BME280;33676;51.006;17.180;2023-04-27T07:08:11;100588.59;;;8.82;72.94
47913;BME280;33676;51.006;17.180;2023-04-27T07:10:40;100589.33;;;8.82;72.63
47913;BME280;33676;51.006;17.180;2023-04-27T07:13:08;100589.89;;;8.81;72.10
47913;BME280;33676;51.006;17.180;2023-04-27T07:15:39;100589.21;;;8.83;72.18
47913;BME280;33676;51.006;17.180;2023-04-27T07:18:07;100594.90;;;8.92;72.16
47913;BME280;33676;51.006;17.180;2023-04-27T07:20:36;100591.98;;;8.99;71.86
47913;BME280;33676;51.006;17.180;2023-04-27T07:23:05;100591.14;;;9.01;71.78
47913;BME280;33676;51.006;17.180;2023-04-27T07:25:34;100588.39;;;9.06;71.93
47913;BME280;33676;51.006;17.180;2023-04-27T07:28:02;100588.58;;;9.13;71.77
47913;BME280;33676;51.006;17.180;2023-04-27T07:30:31;100587.41;;;9.20;71.67
47913;BME280;33676;51.006;17.180;2023-04-27T07:33:04;100588.15;;;9.28;71.35
47913;BME280;33676;51.006;17.180;2023-04-27T07:35:32;100589.38;;;9.38;71.74
47913;BME280;33676;51.006;17.180;2023-04-27T07:38:02;100588.83;;;9.51;71.59
47913;BME280;33676;51.006;17.180;2023-04-27T07:40:30;100592.02;;;9.60;71.33
47913;BME280;33676;51.006;17.180;2023-04-27T07:43:01;100587.54;;;9.67;71.00
47913;BME280;33676;51.006;17.180;2023-04-27T07:45:32;100589.99;;;9.77;70.89
47913;BME280;33676;51.006;17.180;2023-04-27T07:48:00;100587.39;;;9.89;70.85
47913;BME280;33676;51.006;17.180;2023-04-27T07:50:30;100587.98;;;10.03;70.89
47913;BME280;33676;51.006;17.180;2023-04-27T07:52:59;100587.50;;;10.14;70.50
47913;BME280;33676;51.006;17.180;2023-04-27T07:55:28;100587.26;;;10.26;70.29
47913;BME280;33676;51.006;17.180;2023-04-27T07:57:56;100588.33;;;10.40;70.41
47913;BME280;33676;51.006;17.180;2023-04-27T08:00:25;100584.59;;;10.55;70.54
47913;BME280;33676;51.006;17.180;2023-04-27T08:02:54;100588.71;;;10.70;70.13
47913;BME280;33676;51.006;17.180;2023-04-27T08:05:23;100589.38;;;10.83;69.80
47913;BME280;33676;51.006;17.180;2023-04-27T08:07:52;100589.32;;;10.92;69.33
47913;BME280;33676;51.006;17.180;2023-04-27T08:10:22;100594.67;;;10.98;69.03
47913;BME280;33676;51.006;17.180;2023-04-27T08:12:51;100594.59;;;11.04;69.13
47913;BME280;33676;51.006;17.180;2023-04-27T08:15:21;100593.10;;;11.21;69.37
47913;BME280;33676;51.006;17.180;2023-04-27T08:17:50;100592.57;;;11.40;69.28
47913;BME280;33676;51.006;17.180;2023-04-27T08:20:18;100592.36;;;11.55;68.54
47913;BME280;33676;51.006;17.180;2023-04-27T08:22:49;100597.64;;;11.60;66.56
47913;BME280;33676;51.006;17.180;2023-04-27T08:25:18;100594.96;;;11.63;66.45
47913;BME280;33676;51.006;17.180;2023-04-27T08:27:46;100601.69;;;11.71;65.79
47913;BME280;33676;51.006;17.180;2023-04-27T08:30:15;100601.91;;;11.75;65.11
47913;BME280;33676;51.006;17.180;2023-04-27T08:32:43;100603.29;;;11.78;64.64
47913;BME280;33676;51.006;17.180;2023-04-27T08:35:12;100598.36;;;11.82;64.60
47913;BME280;33676;51.006;17.180;2023-04-27T08:37:41;100600.27;;;11.92;64.65
47913;BME280;33676;51.006;17.180;2023-04-27T08:40:11;100600.21;;;12.06;64.88
47913;BME280;33676;51.006;17.180;2023-04-27T08:42:53;100597.52;;;12.19;64.34
47913;BME280;33676;51.006;17.180;2023-04-27T08:45:23;100595.68;;;12.36;64.50
47913;BME280;33676;51.006;17.180;2023-04-27T08:47:53;100597.72;;;12.54;64.97
47913;BME280;33676;51.006;17.180;2023-04-27T08:50:22;100599.63;;;12.78;65.09
47913;BME280;33676;51.006;17.180;2023-04-27T08:52:51;100608.38;;;12.91;63.35
47913;BME280;33676;51.006;17.180;2023-04-27T08:55:20;100608.86;;;12.93;62.58
47913;BME280;33676;51.006;17.180;2023-04-27T08:57:56;100608.79;;;12.97;62.49
47913;BME280;33676;51.006;17.180;2023-04-27T09:00:25;100605.89;;;13.08;62.63
47913;BME280;33676;51.006;17.180;2023-04-27T09:02:54;100607.45;;;13.16;62.12
47913;BME280;33676;51.006;17.180;2023-04-27T09:05:23;100607.41;;;13.21;61.73
47913;BME280;33676;51.006;17.180;2023-04-27T09:08:00;100608.77;;;13.22;61.49
47913;BME280;33676;51.006;17.180;2023-04-27T09:10:42;100609.83;;;13.26;61.38
47913;BME280;33676;51.006;17.180;2023-04-27T09:13:10;100609.48;;;13.32;61.33
47913;BME280;33676;51.006;17.180;2023-04-27T09:15:50;100605.80;;;13.41;61.30
47913;BME280;33676;51.006;17.180;2023-04-27T09:18:21;100603.82;;;13.51;61.73
47913;BME280;33676;51.006;17.180;2023-04-27T09:20:52;100597.73;;;13.59;61.77
47913;BME280;33676;51.006;17.180;2023-04-27T09:23:31;100598.36;;;13.64;61.48
47913;BME280;33676;51.006;17.180;2023-04-27T09:26:03;100599.73;;;13.62;60.81
47913;BME280;33676;51.006;17.180;2023-04-27T09:28:39;100595.84;;;13.54;60.55
47913;BME280;33676;51.006;17.180;2023-04-27T09:31:08;100600.09;;;13.46;60.16
47913;BME280;33676;51.006;17.180;2023-04-27T09:33:38;100595.41;;;13.31;59.89
47913;BME280;33676;51.006;17.180;2023-04-27T09:36:06;100598.93;;;13.15;59.70
47913;BME280;33676;51.006;17.180;2023-04-27T09:38:35;100599.77;;;13.03;59.81
47913;BME280;33676;51.006;17.180;2023-04-27T09:41:04;100599.46;;;12.97;60.13
47913;BME280;33676;51.006;17.180;2023-04-27T09:43:33;100599.54;;;12.89;60.21
47913;BME280;33676;51.006;17.180;2023-04-27T09:46:03;100596.84;;;12.78;59.89
47913;BME280;33676;51.006;17.180;2023-04-27T09:48:31;100599.57;;;12.66;60.06
47913;BME280;33676;51.006;17.180;2023-04-27T09:51:00;100603.63;;;12.52;59.76
47913;BME280;33676;51.006;17.180;2023-04-27T09:53:55;100603.83;;;12.41;59.70
47913;BME280;33676;51.006;17.180;2023-04-27T09:56:59;100606.26;;;12.31;59.31
47913;BME280;33676;51.006;17.180;2023-04-27T09:59:52;100610.48;;;12.15;59.60
47913;BME280;33676;51.006;17.180;2023-04-27T10:02:23;100614.38;;;12.10;59.89
47913;BME280;33676;51.006;17.180;2023-04-27T10:05:20;100613.39;;;12.05;59.82
47913;BME280;33676;51.006;17.180;2023-04-27T10:07:53;100612.96;;;12.04;60.02
47913;BME280;33676;51.006;17.180;2023-04-27T10:10:22;100613.48;;;12.08;60.08
47913;BME280;33676;51.006;17.180;2023-04-27T10:13:00;100610.41;;;12.16;59.97
47913;BME280;33676;51.006;17.180;2023-04-27T10:15:29;100605.30;;;12.30;60.07
47913;BME280;33676;51.006;17.180;2023-04-27T10:18:03;100608.13;;;12.51;60.51
47913;BME280;33676;51.006;17.180;2023-04-27T10:20:35;100599.59;;;12.74;60.51
47913;BME280;33676;51.006;17.180;2023-04-27T10:23:03;100604.55;;;12.92;60.38
47913;BME280;33676;51.006;17.180;2023-04-27T10:25:40;100604.86;;;13.03;60.47
47913;BME280;33676;51.006;17.180;2023-04-27T10:28:15;100604.48;;;13.10;60.35
47913;BME280;33676;51.006;17.180;2023-04-27T10:30:48;100601.60;;;13.05;59.84
47913;BME280;33676;51.006;17.180;2023-04-27T10:33:21;100601.04;;;12.97;60.06
47913;BME280;33676;51.006;17.180;2023-04-27T10:35:57;100603.39;;;12.89;59.89
47913;BME280;33676;51.006;17.180;2023-04-27T10:38:29;100599.57;;;12.81;59.91
47913;BME280;33676;51.006;17.180;2023-04-27T10:41:00;100602.34;;;12.71;59.84
47913;BME280;33676;51.006;17.180;2023-04-27T10:43:33;100605.86;;;12.62;59.86
47913;BME280;33676;51.006;17.180;2023-04-27T10:46:10;100609.98;;;12.56;59.98
47913;BME280;33676;51.006;17.180;2023-04-27T10:48:43;100611.42;;;12.51;59.89
47913;BME280;33676;51.006;17.180;2023-04-27T10:51:15;100609.42;;;12.42;59.37
47913;BME280;33676;51.006;17.180;2023-04-27T10:53:45;100614.86;;;12.33;59.29
47913;BME280;33676;51.006;17.180;2023-04-27T10:56:15;100613.02;;;12.27;59.02
47913;BME280;33676;51.006;17.180;2023-04-27T10:58:43;100613.13;;;12.22;58.96
47913;BME280;33676;51.006;17.180;2023-04-27T11:01:24;100615.38;;;12.17;59.25
47913;BME280;33676;51.006;17.180;2023-04-27T11:03:57;100618.39;;;12.17;59.29
47913;BME280;33676;51.006;17.180;2023-04-27T11:06:30;100617.73;;;12.21;59.36
47913;BME280;33676;51.006;17.180;2023-04-27T11:09:02;100618.14;;;12.29;59.44
47913;BME280;33676;51.006;17.180;2023-04-27T11:11:32;100614.65;;;12.40;59.48
47913;BME280;33676;51.006;17.180;2023-04-27T11:14:01;100615.50;;;12.55;59.47
47913;BME280;33676;51.006;17.180;2023-04-27T11:16:31;100616.86;;;12.71;59.30
47913;BME280;33676;51.006;17.180;2023-04-27T11:19:04;100610.42;;;12.89;59.37
47913;BME280;33676;51.006;17.180;2023-04-27T11:21:34;100612.17;;;13.10;59.11
47913;BME280;33676;51.006;17.180;2023-04-27T11:24:04;100604.14;;;13.29;59.12
47913;BME280;33676;51.006;17.180;2023-04-27T11:26:33;100603.20;;;13.59;59.67
47913;BME280;33676;51.006;17.180;2023-04-27T11:29:05;100602.31;;;13.85;59.76
47913;BME280;33676;51.006;17.180;2023-04-27T11:31:50;100603.71;;;14.01;59.19
47913;BME280;33676;51.006;17.180;2023-04-27T11:34:24;100604.92;;;14.13;59.00
47913;BME280;33676;51.006;17.180;2023-04-27T11:37:00;100601.12;;;14.28;59.03
47913;BME280;33676;51.006;17.180;2023-04-27T11:40:06;100598.67;;;14.83;59.26
47913;BME280;33676;51.006;17.180;2023-04-27T11:42:37;100601.17;;;15.15;59.13
47913;BME280;33676;51.006;17.180;2023-04-27T11:45:06;100602.09;;;15.53;59.44
47913;BME280;33676;51.006;17.180;2023-04-27T11:47:34;100603.06;;;16.06;59.84
47913;BME280;33676;51.006;17.180;2023-04-27T11:50:07;100593.77;;;16.32;59.24
47913;BME280;33676;51.006;17.180;2023-04-27T11:52:37;100596.04;;;16.33;58.58
47913;BME280;33676;51.006;17.180;2023-04-27T11:55:08;100605.09;;;16.14;57.75
47913;BME280;33676;51.006;17.180;2023-04-27T11:57:43;100616.10;;;15.88;57.18
47913;BME280;33676;51.006;17.180;2023-04-27T12:00:12;100618.05;;;15.57;55.99
47913;BME280;33676;51.006;17.180;2023-04-27T12:02:42;100616.36;;;15.13;55.25
47913;BME280;33676;51.006;17.180;2023-04-27T12:05:11;100613.50;;;14.71;55.30
47913;BME280;33676;51.006;17.180;2023-04-27T12:07:41;100609.61;;;14.36;55.38
47913;BME280;33676;51.006;17.180;2023-04-27T12:10:10;100612.05;;;14.08;55.23
47913;BME280;33676;51.006;17.180;2023-04-27T12:12:39;100610.43;;;13.82;55.27
47913;BME280;33676;51.006;17.180;2023-04-27T12:15:08;100610.29;;;13.64;55.33
47913;BME280;33676;51.006;17.180;2023-04-27T12:17:38;100611.85;;;13.48;55.22
47913;BME280;33676;51.006;17.180;2023-04-27T12:20:08;100612.09;;;13.37;55.44
47913;BME280;33676;51.006;17.180;2023-04-27T12:22:37;100618.58;;;13.26;55.48
47913;BME280;33676;51.006;17.180;2023-04-27T12:25:06;100616.42;;;13.16;55.62
47913;BME280;33676;51.006;17.180;2023-04-27T12:27:34;100616.25;;;13.12;55.55
47913;BME280;33676;51.006;17.180;2023-04-27T12:30:03;100615.30;;;13.10;55.33
47913;BME280;33676;51.006;17.180;2023-04-27T12:32:32;100615.32;;;13.14;55.58
47913;BME280;33676;51.006;17.180;2023-04-27T12:35:00;100612.20;;;13.33;55.85
47913;BME280;33676;51.006;17.180;2023-04-27T12:37:28;100610.08;;;13.56;55.81
47913;BME280;33676;51.006;17.180;2023-04-27T12:39:57;100608.49;;;13.77;55.80
47913;BME280;33676;51.006;17.180;2023-04-27T12:42:25;100604.20;;;13.92;55.98
47913;BME280;33676;51.006;17.180;2023-04-27T12:44:53;100607.61;;;14.05;55.93
47913;BME280;33676;51.006;17.180;2023-04-27T12:47:22;100613.31;;;14.40;56.33
47913;BME280;33676;51.006;17.180;2023-04-27T12:49:53;100607.84;;;14.75;56.38
47913;BME280;33676;51.006;17.180;2023-04-27T12:52:22;100613.21;;;15.19;56.61
47913;BME280;33676;51.006;17.180;2023-04-27T12:54:50;100614.20;;;15.63;55.83
47913;BME280;33676;51.006;17.180;2023-04-27T12:57:24;100615.90;;;16.01;55.11
47913;BME280;33676;51.006;17.180;2023-04-27T12:59:53;100616.80;;;16.39;54.72